Messwerte Longville

Temperatur

Temperatur
°C
1618689600 15.00 15.00 11
1618693200 16.00 16.00 12
1618696800 17.00 17.00 12
1618700400 18.00 18.00 12
1618704000 19.00 19.00 11
1618707600 20.00 20.00 11
1618711200 21.00 21.00 6
1618714800 22.00 22.00 4
1618718400 23.00 23.00 3
1618722000 0.00 0.00 2
1618725600 1.00 1.00 1
1618729200 2.00 2.00 0
1618732800 3.00 3.00 -1
1618736400 4.00 4.00 -1
1618740000 5.00 5.00 -1
1618743600 6.00 6.00 -1
1618747200 7.00 7.00 -1
1618750800 8.00 8.00
1618754400 9.00 9.00 4
1618758000 10.00 10.00 9
1618761600 11.00 11.00 11
1618765200 12.00 12.00 11
1618768800 13.00 13.00
1618772400 14.00 14.00 13

Aktuellste Messwerte

Wettercharakter
Wetter: bedeckt, wenig Regen
Temperatur
4 °C
Feuchtigkeit
85 %
Wind
15 km/hWindrichtung: Nordwest
Böen
35 km/h
Luftdruck
1008 hPa
Messzeit: 18. April 2021, 15.00Datenquelle: METAR

Weitere Messstationen in der Nähe

Messstation Temperatur Entfernung
Pine River 8 °C 33 km
Grand Rapids 7 °C 58 km
Aitkin 12 °C 63 km
Brainerd 14 °C 65 km
Bemidji 2 °C 79 km
Mc Gregor 14 °C 79 km
Staples 9 °C 82 km

Wind

Windrichtung Böen Mittelwind
° km/h km/h
1618689600 15.00 14.00 - 15.00 0
1618693200 16.00 15.00 - 16.00 310° 10
1618696800 17.00 16.00 - 17.00 0
1618700400 18.00 17.00 - 18.00 0
1618704000 19.00 18.00 - 19.00 0
1618707600 20.00 19.00 - 20.00 0
1618711200 21.00 20.00 - 21.00 0
1618714800 22.00 21.00 - 22.00 0
1618718400 23.00 22.00 - 23.00 0
1618722000 0.00 23.00 - 0.00 0
1618725600 1.00 0.00 - 1.00 0
1618729200 2.00 1.00 - 2.00 0
1618732800 3.00 2.00 - 3.00 0
1618736400 4.00 3.00 - 4.00 0
1618740000 5.00 4.00 - 5.00 0
1618743600 6.00 5.00 - 6.00 0
1618747200 7.00 6.00 - 7.00 0
1618750800 8.00 7.00 - 8.00
1618754400 9.00 8.00 - 9.00 0
1618758000 10.00 9.00 - 10.00 0
1618761600 11.00 10.00 - 11.00 0
1618765200 12.00 11.00 - 12.00 0
1618768800 13.00 12.00 - 13.00
1618772400 14.00 13.00 - 14.00 270° 35 25

Ihre Wetterstation

Fehlt Ihre Wetterstation auf unserem Portal?

Schreiben Sie an network@meteonews.ch

Klima

Wann ist es am wärmsten? Wann regnet es am wenigsten? Unsere Klimadaten geben Auskunft.